sensor_id;sensor_type;location;lat;lon;timestamp;P1;durP1;ratioP1;P2;durP2;ratioP2
57567;SDS011;43403;51.948;5.922;2022-12-18T00:02:08;51.10;;;23.80;;
57567;SDS011;43403;51.948;5.922;2022-12-18T00:04:37;55.67;;;23.45;;
57567;SDS011;43403;51.948;5.922;2022-12-18T00:07:03;46.72;;;22.23;;
57567;SDS011;43403;51.948;5.922;2022-12-18T00:09:29;48.35;;;22.55;;
57567;SDS011;43403;51.948;5.922;2022-12-18T00:12:05;47.85;;;21.35;;
57567;SDS011;43403;51.948;5.922;2022-12-18T00:14:40;46.22;;;22.00;;
57567;SDS011;43403;51.948;5.922;2022-12-18T00:17:10;52.40;;;24.65;;
57567;SDS011;43403;51.948;5.922;2022-12-18T00:19:37;51.55;;;22.95;;
57567;SDS011;43403;51.948;5.922;2022-12-18T00:22:03;49.88;;;24.38;;
57567;SDS011;43403;51.948;5.922;2022-12-18T00:24:29;54.00;;;23.65;;
57567;SDS011;43403;51.948;5.922;2022-12-18T00:26:56;49.53;;;22.50;;
57567;SDS011;43403;51.948;5.922;2022-12-18T00:29:22;47.65;;;22.25;;
57567;SDS011;43403;51.948;5.922;2022-12-18T00:31:49;49.70;;;22.77;;
57567;SDS011;43403;51.948;5.922;2022-12-18T00:34:15;49.20;;;22.00;;
57567;SDS011;43403;51.948;5.922;2022-12-18T00:36:42;51.92;;;23.67;;
57567;SDS011;43403;51.948;5.922;2022-12-18T00:39:09;51.53;;;23.45;;
57567;SDS011;43403;51.948;5.922;2022-12-18T00:41:36;53.70;;;24.13;;
57567;SDS011;43403;51.948;5.922;2022-12-18T00:44:21;49.25;;;23.38;;
57567;SDS011;43403;51.948;5.922;2022-12-18T00:46:48;50.70;;;22.33;;
57567;SDS011;43403;51.948;5.922;2022-12-18T00:49:15;49.67;;;23.08;;
57567;SDS011;43403;51.948;5.922;2022-12-18T00:51:44;53.38;;;23.13;;
57567;SDS011;43403;51.948;5.922;2022-12-18T00:54:11;45.47;;;21.85;;
57567;SDS011;43403;51.948;5.922;2022-12-18T00:56:38;46.58;;;22.08;;
57567;SDS011;43403;51.948;5.922;2022-12-18T00:59:14;52.80;;;24.92;;
57567;SDS011;43403;51.948;5.922;2022-12-18T01:01:41;44.65;;;21.73;;
57567;SDS011;43403;51.948;5.922;2022-12-18T01:04:08;45.22;;;21.77;;
57567;SDS011;43403;51.948;5.922;2022-12-18T01:06:34;44.90;;;21.15;;
57567;SDS011;43403;51.948;5.922;2022-12-18T01:09:01;47.60;;;22.08;;
57567;SDS011;43403;51.948;5.922;2022-12-18T01:11:28;41.08;;;21.02;;
57567;SDS011;43403;51.948;5.922;2022-12-18T01:13:54;48.47;;;22.25;;
57567;SDS011;43403;51.948;5.922;2022-12-18T01:16:21;45.10;;;21.92;;
57567;SDS011;43403;51.948;5.922;2022-12-18T01:18:51;44.28;;;20.05;;
57567;SDS011;43403;51.948;5.922;2022-12-18T01:21:19;43.92;;;21.00;;
57567;SDS011;43403;51.948;5.922;2022-12-18T01:23:46;44.70;;;19.75;;
57567;SDS011;43403;51.948;5.922;2022-12-18T01:26:16;42.45;;;20.67;;
57567;SDS011;43403;51.948;5.922;2022-12-18T01:28:43;42.55;;;20.77;;
57567;SDS011;43403;51.948;5.922;2022-12-18T01:31:18;41.72;;;20.00;;
57567;SDS011;43403;51.948;5.922;2022-12-18T01:33:46;36.72;;;19.33;;
57567;SDS011;43403;51.948;5.922;2022-12-18T01:36:15;44.73;;;20.80;;
57567;SDS011;43403;51.948;5.922;2022-12-18T01:38:44;41.72;;;19.08;;
57567;SDS011;43403;51.948;5.922;2022-12-18T01:41:12;37.60;;;19.77;;
57567;SDS011;43403;51.948;5.922;2022-12-18T01:44:46;45.38;;;20.42;;
57567;SDS011;43403;51.948;5.922;2022-12-18T01:46:51;41.28;;;20.10;;
57567;SDS011;43403;51.948;5.922;2022-12-18T01:49:18;39.85;;;18.98;;
57567;SDS011;43403;51.948;5.922;2022-12-18T01:51:44;36.42;;;18.08;;
57567;SDS011;43403;51.948;5.922;2022-12-18T01:54:10;37.95;;;18.83;;
57567;SDS011;43403;51.948;5.922;2022-12-18T01:56:37;37.25;;;19.20;;
57567;SDS011;43403;51.948;5.922;2022-12-18T01:59:04;39.65;;;18.75;;
57567;SDS011;43403;51.948;5.922;2022-12-18T02:01:35;37.30;;;18.58;;
57567;SDS011;43403;51.948;5.922;2022-12-18T02:04:23;41.58;;;20.13;;
57567;SDS011;43403;51.948;5.922;2022-12-18T02:06:54;39.92;;;18.92;;
57567;SDS011;43403;51.948;5.922;2022-12-18T02:09:26;37.13;;;18.15;;
57567;SDS011;43403;51.948;5.922;2022-12-18T02:14:44;39.17;;;18.85;;
57567;SDS011;43403;51.948;5.922;2022-12-18T02:17:20;34.83;;;17.85;;
57567;SDS011;43403;51.948;5.922;2022-12-18T02:20:05;35.80;;;17.77;;
57567;SDS011;43403;51.948;5.922;2022-12-18T02:25:06;37.25;;;18.33;;
57567;SDS011;43403;51.948;5.922;2022-12-18T02:27:39;38.15;;;18.13;;
57567;SDS011;43403;51.948;5.922;2022-12-18T02:30:09;38.22;;;17.83;;
57567;SDS011;43403;51.948;5.922;2022-12-18T02:32:38;33.72;;;17.73;;
57567;SDS011;43403;51.948;5.922;2022-12-18T02:35:11;40.03;;;18.10;;
57567;SDS011;43403;51.948;5.922;2022-12-18T02:37:42;40.30;;;18.90;;
57567;SDS011;43403;51.948;5.922;2022-12-18T02:40:11;45.90;;;20.90;;
57567;SDS011;43403;51.948;5.922;2022-12-18T02:42:40;41.70;;;19.25;;
57567;SDS011;43403;51.948;5.922;2022-12-18T02:45:06;38.75;;;18.33;;
57567;SDS011;43403;51.948;5.922;2022-12-18T02:47:34;40.75;;;19.50;;
57567;SDS011;43403;51.948;5.922;2022-12-18T02:52:45;38.22;;;18.42;;
57567;SDS011;43403;51.948;5.922;2022-12-18T02:55:17;41.80;;;18.27;;
57567;SDS011;43403;51.948;5.922;2022-12-18T02:58:14;42.47;;;19.83;;
57567;SDS011;43403;51.948;5.922;2022-12-18T03:00:52;40.55;;;16.95;;
57567;SDS011;43403;51.948;5.922;2022-12-18T03:03:26;38.95;;;18.58;;
57567;SDS011;43403;51.948;5.922;2022-12-18T03:06:01;38.65;;;17.45;;
57567;SDS011;43403;51.948;5.922;2022-12-18T03:08:35;33.90;;;16.88;;
57567;SDS011;43403;51.948;5.922;2022-12-18T03:11:06;37.50;;;18.63;;
57567;SDS011;43403;51.948;5.922;2022-12-18T03:13:49;37.80;;;17.73;;
57567;SDS011;43403;51.948;5.922;2022-12-18T03:16:22;36.42;;;17.02;;
57567;SDS011;43403;51.948;5.922;2022-12-18T03:18:54;32.88;;;17.67;;
57567;SDS011;43403;51.948;5.922;2022-12-18T03:21:26;34.75;;;17.05;;
57567;SDS011;43403;51.948;5.922;2022-12-18T03:24:03;42.40;;;17.13;;
57567;SDS011;43403;51.948;5.922;2022-12-18T03:26:35;35.58;;;16.38;;
57567;SDS011;43403;51.948;5.922;2022-12-18T03:29:07;33.25;;;15.50;;
57567;SDS011;43403;51.948;5.922;2022-12-18T03:31:39;31.98;;;15.70;;
57567;SDS011;43403;51.948;5.922;2022-12-18T03:34:09;39.50;;;16.88;;
57567;SDS011;43403;51.948;5.922;2022-12-18T03:36:41;34.10;;;15.77;;
57567;SDS011;43403;51.948;5.922;2022-12-18T03:39:07;32.15;;;15.77;;
57567;SDS011;43403;51.948;5.922;2022-12-18T03:44:12;31.05;;;14.85;;
57567;SDS011;43403;51.948;5.922;2022-12-18T03:49:50;34.67;;;15.10;;
57567;SDS011;43403;51.948;5.922;2022-12-18T03:52:29;33.38;;;14.32;;
57567;SDS011;43403;51.948;5.922;2022-12-18T03:55:02;27.10;;;14.23;;
57567;SDS011;43403;51.948;5.922;2022-12-18T03:57:31;25.25;;;14.00;;
57567;SDS011;43403;51.948;5.922;2022-12-18T04:00:08;27.00;;;13.70;;
57567;SDS011;43403;51.948;5.922;2022-12-18T04:02:41;28.25;;;13.82;;
57567;SDS011;43403;51.948;5.922;2022-12-18T04:05:10;30.20;;;14.95;;
57567;SDS011;43403;51.948;5.922;2022-12-18T04:07:39;28.13;;;13.40;;
57567;SDS011;43403;51.948;5.922;2022-12-18T04:10:07;29.65;;;14.13;;
57567;SDS011;43403;51.948;5.922;2022-12-18T04:12:36;27.40;;;14.50;;
57567;SDS011;43403;51.948;5.922;2022-12-18T04:15:03;27.10;;;12.60;;
57567;SDS011;43403;51.948;5.922;2022-12-18T04:17:30;26.55;;;13.95;;
57567;SDS011;43403;51.948;5.922;2022-12-18T04:19:57;27.58;;;12.23;;
57567;SDS011;43403;51.948;5.922;2022-12-18T04:22:23;25.23;;;12.93;;
57567;SDS011;43403;51.948;5.922;2022-12-18T04:24:49;21.17;;;11.23;;
57567;SDS011;43403;51.948;5.922;2022-12-18T04:27:16;21.90;;;12.48;;
57567;SDS011;43403;51.948;5.922;2022-12-18T04:29:42;28.75;;;14.07;;
57567;SDS011;43403;51.948;5.922;2022-12-18T04:32:09;22.38;;;11.38;;
57567;SDS011;43403;51.948;5.922;2022-12-18T04:34:35;26.90;;;12.23;;
57567;SDS011;43403;51.948;5.922;2022-12-18T04:37:02;32.20;;;13.13;;
57567;SDS011;43403;51.948;5.922;2022-12-18T04:39:28;27.60;;;12.55;;
57567;SDS011;43403;51.948;5.922;2022-12-18T04:41:55;25.05;;;13.48;;
57567;SDS011;43403;51.948;5.922;2022-12-18T04:44:22;23.35;;;12.57;;
57567;SDS011;43403;51.948;5.922;2022-12-18T04:46:48;24.10;;;12.93;;
57567;SDS011;43403;51.948;5.922;2022-12-18T04:49:15;24.45;;;12.55;;
57567;SDS011;43403;51.948;5.922;2022-12-18T04:51:41;27.50;;;13.45;;
57567;SDS011;43403;51.948;5.922;2022-12-18T04:54:08;26.38;;;13.02;;
57567;SDS011;43403;51.948;5.922;2022-12-18T04:56:34;21.13;;;11.82;;
57567;SDS011;43403;51.948;5.922;2022-12-18T04:59:00;26.52;;;12.32;;
57567;SDS011;43403;51.948;5.922;2022-12-18T05:01:27;23.33;;;12.07;;
57567;SDS011;43403;51.948;5.922;2022-12-18T05:04:00;22.65;;;12.30;;
57567;SDS011;43403;51.948;5.922;2022-12-18T05:06:27;27.55;;;12.43;;
57567;SDS011;43403;51.948;5.922;2022-12-18T05:08:53;25.30;;;11.98;;
57567;SDS011;43403;51.948;5.922;2022-12-18T05:11:20;23.20;;;12.27;;
57567;SDS011;43403;51.948;5.922;2022-12-18T05:13:46;19.98;;;11.52;;
57567;SDS011;43403;51.948;5.922;2022-12-18T05:16:13;20.23;;;10.07;;
57567;SDS011;43403;51.948;5.922;2022-12-18T05:18:40;25.70;;;12.35;;
57567;SDS011;43403;51.948;5.922;2022-12-18T05:21:07;19.73;;;11.18;;
57567;SDS011;43403;51.948;5.922;2022-12-18T05:23:33;24.23;;;12.00;;
57567;SDS011;43403;51.948;5.922;2022-12-18T05:26:02;24.40;;;12.00;;
57567;SDS011;43403;51.948;5.922;2022-12-18T05:28:31;23.00;;;11.98;;
57567;SDS011;43403;51.948;5.922;2022-12-18T05:30:59;21.90;;;11.18;;
57567;SDS011;43403;51.948;5.922;2022-12-18T05:33:29;18.65;;;10.38;;
57567;SDS011;43403;51.948;5.922;2022-12-18T05:35:58;27.63;;;11.73;;
57567;SDS011;43403;51.948;5.922;2022-12-18T05:38:31;20.60;;;10.30;;
57567;SDS011;43403;51.948;5.922;2022-12-18T05:40:59;25.00;;;11.50;;
57567;SDS011;43403;51.948;5.922;2022-12-18T05:43:26;22.33;;;10.50;;
57567;SDS011;43403;51.948;5.922;2022-12-18T05:45:53;21.35;;;11.50;;
57567;SDS011;43403;51.948;5.922;2022-12-18T05:48:20;18.23;;;10.65;;
57567;SDS011;43403;51.948;5.922;2022-12-18T05:50:48;19.42;;;10.80;;
57567;SDS011;43403;51.948;5.922;2022-12-18T05:53:16;24.05;;;10.88;;
57567;SDS011;43403;51.948;5.922;2022-12-18T05:55:45;24.33;;;11.18;;
57567;SDS011;43403;51.948;5.922;2022-12-18T05:58:12;19.65;;;10.00;;
57567;SDS011;43403;51.948;5.922;2022-12-18T06:00:41;24.35;;;9.68;;
57567;SDS011;43403;51.948;5.922;2022-12-18T06:03:09;22.15;;;9.85;;
57567;SDS011;43403;51.948;5.922;2022-12-18T06:05:38;20.23;;;10.18;;
57567;SDS011;43403;51.948;5.922;2022-12-18T06:08:06;21.50;;;10.18;;
57567;SDS011;43403;51.948;5.922;2022-12-18T06:10:33;18.80;;;10.15;;
57567;SDS011;43403;51.948;5.922;2022-12-18T06:12:59;21.52;;;10.60;;
57567;SDS011;43403;51.948;5.922;2022-12-18T06:15:26;17.95;;;9.68;;
57567;SDS011;43403;51.948;5.922;2022-12-18T06:17:52;17.80;;;9.88;;
57567;SDS011;43403;51.948;5.922;2022-12-18T06:20:19;18.67;;;10.50;;
57567;SDS011;43403;51.948;5.922;2022-12-18T06:22:46;23.75;;;10.60;;
57567;SDS011;43403;51.948;5.922;2022-12-18T06:25:12;19.98;;;10.38;;
57567;SDS011;43403;51.948;5.922;2022-12-18T06:27:38;23.20;;;11.23;;
57567;SDS011;43403;51.948;5.922;2022-12-18T06:30:07;20.90;;;9.68;;
57567;SDS011;43403;51.948;5.922;2022-12-18T06:32:34;21.40;;;10.98;;
57567;SDS011;43403;51.948;5.922;2022-12-18T06:35:01;17.77;;;9.73;;
57567;SDS011;43403;51.948;5.922;2022-12-18T06:37:27;19.30;;;10.73;;
57567;SDS011;43403;51.948;5.922;2022-12-18T06:39:54;20.40;;;10.98;;
57567;SDS011;43403;51.948;5.922;2022-12-18T06:42:20;19.48;;;10.45;;
57567;SDS011;43403;51.948;5.922;2022-12-18T06:44:48;20.98;;;10.70;;
57567;SDS011;43403;51.948;5.922;2022-12-18T06:47:14;17.05;;;10.30;;
57567;SDS011;43403;51.948;5.922;2022-12-18T06:49:40;19.98;;;9.93;;
57567;SDS011;43403;51.948;5.922;2022-12-18T06:52:07;19.25;;;10.43;;
57567;SDS011;43403;51.948;5.922;2022-12-18T06:54:33;18.13;;;9.93;;
57567;SDS011;43403;51.948;5.922;2022-12-18T06:57:00;19.35;;;9.73;;
57567;SDS011;43403;51.948;5.922;2022-12-18T06:59:26;19.15;;;10.20;;
57567;SDS011;43403;51.948;5.922;2022-12-18T07:01:53;18.88;;;10.10;;
57567;SDS011;43403;51.948;5.922;2022-12-18T07:04:19;24.48;;;10.77;;
57567;SDS011;43403;51.948;5.922;2022-12-18T07:06:46;19.05;;;10.57;;
57567;SDS011;43403;51.948;5.922;2022-12-18T07:09:12;17.70;;;10.13;;
57567;SDS011;43403;51.948;5.922;2022-12-18T07:11:39;18.17;;;9.13;;
57567;SDS011;43403;51.948;5.922;2022-12-18T07:14:05;21.00;;;10.23;;
57567;SDS011;43403;51.948;5.922;2022-12-18T07:16:31;18.27;;;9.60;;
57567;SDS011;43403;51.948;5.922;2022-12-18T07:18:58;21.40;;;8.93;;
57567;SDS011;43403;51.948;5.922;2022-12-18T07:21:24;18.33;;;9.73;;
57567;SDS011;43403;51.948;5.922;2022-12-18T07:23:51;20.40;;;10.73;;
57567;SDS011;43403;51.948;5.922;2022-12-18T07:26:19;18.35;;;9.88;;
57567;SDS011;43403;51.948;5.922;2022-12-18T07:28:47;20.95;;;10.38;;
57567;SDS011;43403;51.948;5.922;2022-12-18T07:31:18;16.98;;;9.77;;
57567;SDS011;43403;51.948;5.922;2022-12-18T07:33:47;16.98;;;10.38;;
57567;SDS011;43403;51.948;5.922;2022-12-18T07:36:14;15.93;;;10.00;;
57567;SDS011;43403;51.948;5.922;2022-12-18T07:38:40;19.60;;;10.02;;
57567;SDS011;43403;51.948;5.922;2022-12-18T07:41:08;16.38;;;9.82;;
57567;SDS011;43403;51.948;5.922;2022-12-18T07:43:37;17.10;;;8.65;;
57567;SDS011;43403;51.948;5.922;2022-12-18T07:46:05;19.77;;;10.00;;
57567;SDS011;43403;51.948;5.922;2022-12-18T07:48:33;17.77;;;9.25;;
57567;SDS011;43403;51.948;5.922;2022-12-18T07:51:03;21.48;;;10.25;;
57567;SDS011;43403;51.948;5.922;2022-12-18T07:53:31;20.15;;;11.05;;
57567;SDS011;43403;51.948;5.922;2022-12-18T07:55:59;17.75;;;9.68;;
57567;SDS011;43403;51.948;5.922;2022-12-18T07:58:48;15.20;;;8.65;;
57567;SDS011;43403;51.948;5.922;2022-12-18T08:01:14;21.73;;;10.02;;
57567;SDS011;43403;51.948;5.922;2022-12-18T08:03:41;17.10;;;9.77;;
57567;SDS011;43403;51.948;5.922;2022-12-18T08:06:08;18.15;;;9.23;;
57567;SDS011;43403;51.948;5.922;2022-12-18T08:08:35;16.53;;;8.13;;
57567;SDS011;43403;51.948;5.922;2022-12-18T08:11:03;16.48;;;8.90;;
57567;SDS011;43403;51.948;5.922;2022-12-18T08:13:29;14.85;;;8.73;;
57567;SDS011;43403;51.948;5.922;2022-12-18T08:16:03;18.98;;;8.38;;
57567;SDS011;43403;51.948;5.922;2022-12-18T08:18:32;14.45;;;7.63;;
57567;SDS011;43403;51.948;5.922;2022-12-18T08:21:09;16.15;;;9.43;;
57567;SDS011;43403;51.948;5.922;2022-12-18T08:23:37;19.15;;;9.50;;
57567;SDS011;43403;51.948;5.922;2022-12-18T08:26:08;16.38;;;9.73;;
57567;SDS011;43403;51.948;5.922;2022-12-18T08:28:36;16.23;;;8.88;;
57567;SDS011;43403;51.948;5.922;2022-12-18T08:31:02;16.52;;;9.18;;
57567;SDS011;43403;51.948;5.922;2022-12-18T08:33:30;17.20;;;9.55;;
57567;SDS011;43403;51.948;5.922;2022-12-18T08:35:57;19.80;;;9.65;;
57567;SDS011;43403;51.948;5.922;2022-12-18T08:38:24;17.80;;;9.07;;
57567;SDS011;43403;51.948;5.922;2022-12-18T08:40:58;17.42;;;9.35;;
57567;SDS011;43403;51.948;5.922;2022-12-18T08:43:25;17.10;;;8.70;;
57567;SDS011;43403;51.948;5.922;2022-12-18T08:46:11;15.45;;;8.32;;
57567;SDS011;43403;51.948;5.922;2022-12-18T08:48:38;19.55;;;9.38;;
57567;SDS011;43403;51.948;5.922;2022-12-18T08:51:04;16.08;;;8.07;;
57567;SDS011;43403;51.948;5.922;2022-12-18T08:53:31;11.68;;;6.35;;
57567;SDS011;43403;51.948;5.922;2022-12-18T08:56:01;17.33;;;7.32;;
57567;SDS011;43403;51.948;5.922;2022-12-18T08:58:27;14.23;;;7.80;;
57567;SDS011;43403;51.948;5.922;2022-12-18T09:00:54;15.77;;;9.02;;
57567;SDS011;43403;51.948;5.922;2022-12-18T09:03:20;14.25;;;7.72;;
57567;SDS011;43403;51.948;5.922;2022-12-18T09:05:48;15.75;;;8.05;;
57567;SDS011;43403;51.948;5.922;2022-12-18T09:08:15;17.00;;;8.38;;
57567;SDS011;43403;51.948;5.922;2022-12-18T09:10:42;13.18;;;7.50;;
57567;SDS011;43403;51.948;5.922;2022-12-18T09:13:10;19.02;;;8.55;;
57567;SDS011;43403;51.948;5.922;2022-12-18T09:15:40;14.80;;;7.78;;
57567;SDS011;43403;51.948;5.922;2022-12-18T09:18:20;18.48;;;8.90;;
57567;SDS011;43403;51.948;5.922;2022-12-18T09:20:47;14.95;;;7.78;;
57567;SDS011;43403;51.948;5.922;2022-12-18T09:23:14;15.13;;;7.97;;
57567;SDS011;43403;51.948;5.922;2022-12-18T09:25:40;16.45;;;7.50;;
57567;SDS011;43403;51.948;5.922;2022-12-18T09:28:11;11.82;;;6.10;;
57567;SDS011;43403;51.948;5.922;2022-12-18T09:30:42;16.20;;;7.30;;
57567;SDS011;43403;51.948;5.922;2022-12-18T09:33:10;14.10;;;6.82;;
57567;SDS011;43403;51.948;5.922;2022-12-18T09:35:37;14.10;;;8.10;;
57567;SDS011;43403;51.948;5.922;2022-12-18T09:38:06;14.55;;;7.68;;
57567;SDS011;43403;51.948;5.922;2022-12-18T09:40:35;13.07;;;7.20;;
57567;SDS011;43403;51.948;5.922;2022-12-18T09:43:10;14.02;;;7.63;;
57567;SDS011;43403;51.948;5.922;2022-12-18T09:45:44;12.77;;;7.00;;
57567;SDS011;43403;51.948;5.922;2022-12-18T09:48:20;12.60;;;6.65;;
57567;SDS011;43403;51.948;5.922;2022-12-18T09:50:53;13.77;;;6.63;;
57567;SDS011;43403;51.948;5.922;2022-12-18T09:53:25;12.52;;;7.55;;
57567;SDS011;43403;51.948;5.922;2022-12-18T09:55:56;13.55;;;6.43;;
57567;SDS011;43403;51.948;5.922;2022-12-18T09:58:37;16.25;;;8.20;;
57567;SDS011;43403;51.948;5.922;2022-12-18T10:01:14;17.38;;;7.70;;
57567;SDS011;43403;51.948;5.922;2022-12-18T10:03:44;13.43;;;6.75;;
57567;SDS011;43403;51.948;5.922;2022-12-18T10:06:12;14.32;;;8.75;;
57567;SDS011;43403;51.948;5.922;2022-12-18T10:11:31;18.45;;;8.88;;
57567;SDS011;43403;51.948;5.922;2022-12-18T10:17:00;16.17;;;8.48;;
57567;SDS011;43403;51.948;5.922;2022-12-18T10:22:18;17.52;;;8.38;;
57567;SDS011;43403;51.948;5.922;2022-12-18T10:24:54;19.77;;;8.82;;
57567;SDS011;43403;51.948;5.922;2022-12-18T10:27:27;14.57;;;7.32;;
57567;SDS011;43403;51.948;5.922;2022-12-18T10:29:54;12.27;;;7.47;;
57567;SDS011;43403;51.948;5.922;2022-12-18T10:32:25;15.40;;;7.97;;
57567;SDS011;43403;51.948;5.922;2022-12-18T10:34:55;14.32;;;7.82;;
57567;SDS011;43403;51.948;5.922;2022-12-18T10:37:27;12.50;;;6.75;;
57567;SDS011;43403;51.948;5.922;2022-12-18T10:40:07;13.00;;;7.03;;
57567;SDS011;43403;51.948;5.922;2022-12-18T10:45:01;14.70;;;7.63;;
57567;SDS011;43403;51.948;5.922;2022-12-18T10:47:30;12.32;;;6.97;;
57567;SDS011;43403;51.948;5.922;2022-12-18T10:49:56;13.80;;;7.70;;
57567;SDS011;43403;51.948;5.922;2022-12-18T10:52:24;13.13;;;7.40;;
57567;SDS011;43403;51.948;5.922;2022-12-18T10:54:53;14.60;;;8.52;;
57567;SDS011;43403;51.948;5.922;2022-12-18T10:59:53;15.70;;;8.10;;
57567;SDS011;43403;51.948;5.922;2022-12-18T11:02:39;13.57;;;6.97;;
57567;SDS011;43403;51.948;5.922;2022-12-18T11:07:55;12.65;;;7.38;;
57567;SDS011;43403;51.948;5.922;2022-12-18T11:10:25;14.20;;;7.72;;
57567;SDS011;43403;51.948;5.922;2022-12-18T11:12:54;14.95;;;8.07;;
57567;SDS011;43403;51.948;5.922;2022-12-18T11:15:23;15.57;;;7.45;;
57567;SDS011;43403;51.948;5.922;2022-12-18T11:17:56;15.63;;;8.32;;
57567;SDS011;43403;51.948;5.922;2022-12-18T11:22:56;14.50;;;7.38;;
57567;SDS011;43403;51.948;5.922;2022-12-18T11:25:25;14.43;;;8.07;;
57567;SDS011;43403;51.948;5.922;2022-12-18T11:28:02;15.75;;;8.55;;
57567;SDS011;43403;51.948;5.922;2022-12-18T11:30:35;14.13;;;7.95;;
57567;SDS011;43403;51.948;5.922;2022-12-18T11:33:04;15.05;;;8.05;;
57567;SDS011;43403;51.948;5.922;2022-12-18T11:38:30;15.55;;;8.00;;
57567;SDS011;43403;51.948;5.922;2022-12-18T11:41:05;15.48;;;8.23;;
57567;SDS011;43403;51.948;5.922;2022-12-18T11:46:23;15.15;;;8.32;;
57567;SDS011;43403;51.948;5.922;2022-12-18T11:49:17;17.13;;;8.20;;
57567;SDS011;43403;51.948;5.922;2022-12-18T11:51:50;16.17;;;7.93;;
57567;SDS011;43403;51.948;5.922;2022-12-18T11:54:21;16.23;;;8.63;;
57567;SDS011;43403;51.948;5.922;2022-12-18T11:56:49;15.88;;;8.57;;
57567;SDS011;43403;51.948;5.922;2022-12-18T11:59:35;14.27;;;8.23;;
57567;SDS011;43403;51.948;5.922;2022-12-18T12:05:04;18.73;;;10.07;;
57567;SDS011;43403;51.948;5.922;2022-12-18T12:10:51;15.38;;;8.55;;
57567;SDS011;43403;51.948;5.922;2022-12-18T12:16:34;16.52;;;8.80;;
57567;SDS011;43403;51.948;5.922;2022-12-18T12:25:07;21.33;;;9.45;;
57567;SDS011;43403;51.948;5.922;2022-12-18T12:27:57;19.38;;;10.48;;
57567;SDS011;43403;51.948;5.922;2022-12-18T12:30:39;16.77;;;9.60;;
57567;SDS011;43403;51.948;5.922;2022-12-18T12:36:14;14.43;;;8.10;;
57567;SDS011;43403;51.948;5.922;2022-12-18T12:38:54;16.27;;;9.07;;
57567;SDS011;43403;51.948;5.922;2022-12-18T12:41:24;22.40;;;9.82;;
57567;SDS011;43403;51.948;5.922;2022-12-18T12:44:21;15.68;;;9.52;;
57567;SDS011;43403;51.948;5.922;2022-12-18T12:46:55;21.35;;;9.68;;
57567;SDS011;43403;51.948;5.922;2022-12-18T12:49:26;16.13;;;8.50;;
57567;SDS011;43403;51.948;5.922;2022-12-18T12:52:06;19.27;;;8.98;;
57567;SDS011;43403;51.948;5.922;2022-12-18T12:54:36;15.80;;;9.13;;
57567;SDS011;43403;51.948;5.922;2022-12-18T12:57:21;16.77;;;8.48;;
57567;SDS011;43403;51.948;5.922;2022-12-18T13:00:07;17.00;;;8.70;;
57567;SDS011;43403;51.948;5.922;2022-12-18T13:05:24;15.90;;;8.73;;
57567;SDS011;43403;51.948;5.922;2022-12-18T13:07:59;17.02;;;9.35;;
57567;SDS011;43403;51.948;5.922;2022-12-18T13:10:34;15.73;;;8.65;;
57567;SDS011;43403;51.948;5.922;2022-12-18T13:13:05;21.70;;;9.57;;
57567;SDS011;43403;51.948;5.922;2022-12-18T13:15:37;16.27;;;8.98;;
57567;SDS011;43403;51.948;5.922;2022-12-18T13:20:38;16.67;;;8.55;;
57567;SDS011;43403;51.948;5.922;2022-12-18T13:30:59;18.05;;;9.23;;
57567;SDS011;43403;51.948;5.922;2022-12-18T13:33:36;16.05;;;8.80;;
57567;SDS011;43403;51.948;5.922;2022-12-18T13:36:32;18.35;;;9.52;;
57567;SDS011;43403;51.948;5.922;2022-12-18T13:44:31;16.85;;;9.55;;
57567;SDS011;43403;51.948;5.922;2022-12-18T13:47:24;14.98;;;8.65;;
57567;SDS011;43403;51.948;5.922;2022-12-18T13:52:28;17.08;;;8.75;;
57567;SDS011;43403;51.948;5.922;2022-12-18T13:55:06;19.48;;;9.10;;
57567;SDS011;43403;51.948;5.922;2022-12-18T13:57:40;17.08;;;8.93;;
57567;SDS011;43403;51.948;5.922;2022-12-18T14:02:51;16.63;;;8.93;;
57567;SDS011;43403;51.948;5.922;2022-12-18T14:05:31;23.38;;;10.27;;
57567;SDS011;43403;51.948;5.922;2022-12-18T14:08:05;16.88;;;9.13;;
57567;SDS011;43403;51.948;5.922;2022-12-18T14:10:39;22.67;;;10.27;;
57567;SDS011;43403;51.948;5.922;2022-12-18T14:15:46;20.60;;;9.50;;
57567;SDS011;43403;51.948;5.922;2022-12-18T14:21:18;19.92;;;9.40;;
57567;SDS011;43403;51.948;5.922;2022-12-18T14:23:47;18.45;;;9.98;;
57567;SDS011;43403;51.948;5.922;2022-12-18T14:26:27;18.73;;;10.82;;
57567;SDS011;43403;51.948;5.922;2022-12-18T14:28:56;19.20;;;10.32;;
57567;SDS011;43403;51.948;5.922;2022-12-18T14:31:27;17.42;;;9.63;;
57567;SDS011;43403;51.948;5.922;2022-12-18T14:33:55;17.55;;;9.40;;
57567;SDS011;43403;51.948;5.922;2022-12-18T14:36:23;19.90;;;9.65;;
57567;SDS011;43403;51.948;5.922;2022-12-18T14:38:55;17.00;;;9.88;;
57567;SDS011;43403;51.948;5.922;2022-12-18T14:41:23;17.63;;;10.10;;
57567;SDS011;43403;51.948;5.922;2022-12-18T14:43:51;19.42;;;9.38;;
57567;SDS011;43403;51.948;5.922;2022-12-18T14:49:44;17.95;;;9.80;;
57567;SDS011;43403;51.948;5.922;2022-12-18T14:51:59;23.77;;;10.23;;
57567;SDS011;43403;51.948;5.922;2022-12-18T14:57:03;22.98;;;10.88;;
57567;SDS011;43403;51.948;5.922;2022-12-18T14:59:49;21.15;;;11.02;;
57567;SDS011;43403;51.948;5.922;2022-12-18T15:02:21;22.27;;;10.00;;
57567;SDS011;43403;51.948;5.922;2022-12-18T15:05:04;17.20;;;9.63;;
57567;SDS011;43403;51.948;5.922;2022-12-18T15:07:46;19.25;;;10.18;;
57567;SDS011;43403;51.948;5.922;2022-12-18T15:10:17;20.60;;;10.15;;
57567;SDS011;43403;51.948;5.922;2022-12-18T15:20:56;20.70;;;9.90;;
57567;SDS011;43403;51.948;5.922;2022-12-18T15:26:05;19.60;;;10.60;;
57567;SDS011;43403;51.948;5.922;2022-12-18T15:28:39;20.30;;;9.35;;
57567;SDS011;43403;51.948;5.922;2022-12-18T15:34:00;21.95;;;11.45;;
57567;SDS011;43403;51.948;5.922;2022-12-18T15:36:29;16.85;;;9.45;;
57567;SDS011;43403;51.948;5.922;2022-12-18T15:38:56;19.45;;;10.43;;
57567;SDS011;43403;51.948;5.922;2022-12-18T15:41:33;18.83;;;10.05;;
57567;SDS011;43403;51.948;5.922;2022-12-18T15:44:02;19.05;;;9.98;;
57567;SDS011;43403;51.948;5.922;2022-12-18T15:46:41;20.92;;;11.27;;
57567;SDS011;43403;51.948;5.922;2022-12-18T15:49:08;21.02;;;11.35;;
57567;SDS011;43403;51.948;5.922;2022-12-18T15:51:35;24.50;;;11.15;;
57567;SDS011;43403;51.948;5.922;2022-12-18T15:54:04;23.02;;;12.40;;
57567;SDS011;43403;51.948;5.922;2022-12-18T15:56:35;18.85;;;11.18;;
57567;SDS011;43403;51.948;5.922;2022-12-18T15:59:22;21.45;;;11.50;;
57567;SDS011;43403;51.948;5.922;2022-12-18T16:01:49;20.77;;;10.68;;
57567;SDS011;43403;51.948;5.922;2022-12-18T16:04:18;20.75;;;11.10;;
57567;SDS011;43403;51.948;5.922;2022-12-18T16:06:47;23.02;;;11.68;;
57567;SDS011;43403;51.948;5.922;2022-12-18T16:09:34;23.33;;;12.32;;
57567;SDS011;43403;51.948;5.922;2022-12-18T16:12:01;21.05;;;11.48;;
57567;SDS011;43403;51.948;5.922;2022-12-18T16:14:29;23.75;;;12.65;;
57567;SDS011;43403;51.948;5.922;2022-12-18T16:16:58;22.23;;;12.20;;
57567;SDS011;43403;51.948;5.922;2022-12-18T16:19:29;22.60;;;11.13;;
57567;SDS011;43403;51.948;5.922;2022-12-18T16:21:56;25.02;;;13.30;;
57567;SDS011;43403;51.948;5.922;2022-12-18T16:24:24;26.95;;;13.40;;
57567;SDS011;43403;51.948;5.922;2022-12-18T16:29:19;23.17;;;13.07;;
57567;SDS011;43403;51.948;5.922;2022-12-18T16:31:50;34.00;;;13.25;;
57567;SDS011;43403;51.948;5.922;2022-12-18T16:34:19;21.17;;;11.30;;